createdAt,value
2023-02-03T00:01:40.828Z,7.60
2023-02-03T00:04:11.562Z,10.70
2023-02-03T00:06:43.634Z,9.90
2023-02-03T00:09:15.557Z,12.30
2023-02-03T00:11:47.424Z,10.30
2023-02-03T00:14:22.146Z,10.60
2023-02-03T00:16:52.890Z,8.20
2023-02-03T00:19:23.240Z,10.00
2023-02-03T00:21:54.247Z,12.00
2023-02-03T00:24:24.698Z,9.50
2023-02-03T00:27:01.728Z,12.80
2023-02-03T00:32:04.925Z,11.20
2023-02-03T00:34:36.234Z,12.80
2023-02-03T00:37:07.243Z,10.70
2023-02-03T00:39:39.936Z,12.10
2023-02-03T00:42:10.427Z,11.30
2023-02-03T00:44:40.799Z,9.50
2023-02-03T00:47:12.581Z,9.60
2023-02-03T00:49:55.040Z,13.60
2023-02-03T00:52:26.216Z,8.20
2023-02-03T00:54:57.043Z,8.20
2023-02-03T00:57:28.548Z,11.70
2023-02-03T01:00:01.573Z,10.90
2023-02-03T01:02:33.115Z,12.00
2023-02-03T01:05:06.043Z,10.80
2023-02-03T01:07:37.528Z,9.10
2023-02-03T01:10:09.251Z,11.50
2023-02-03T01:12:39.953Z,8.10
2023-02-03T01:15:11.531Z,9.10
2023-02-03T01:17:41.935Z,9.90
2023-02-03T01:20:14.125Z,11.70
2023-02-03T01:22:44.612Z,11.80
2023-02-03T01:25:14.908Z,10.40
2023-02-03T01:27:45.280Z,13.90
2023-02-03T01:30:16.781Z,14.00
2023-02-03T01:32:49.448Z,9.60
2023-02-03T01:35:21.038Z,14.20
2023-02-03T01:37:51.370Z,14.20
2023-02-03T01:40:22.068Z,11.40
2023-02-03T01:42:52.456Z,11.40
2023-02-03T01:45:24.149Z,19.20
2023-02-03T01:47:58.850Z,8.90
2023-02-03T01:50:34.481Z,9.30
2023-02-03T01:53:10.569Z,14.20
2023-02-03T01:58:20.402Z,15.90
2023-02-03T02:00:52.199Z,20.90
2023-02-03T02:03:26.025Z,20.20
2023-02-03T02:06:02.771Z,31.00
2023-02-03T02:08:34.189Z,30.10
2023-02-03T02:11:07.236Z,19.40
2023-02-03T02:13:39.987Z,18.60
2023-02-03T02:16:16.399Z,13.00
2023-02-03T02:18:57.578Z,12.40
2023-02-03T02:21:47.922Z,15.40
2023-02-03T02:24:37.268Z,11.80
2023-02-03T02:27:18.396Z,11.90
2023-02-03T02:30:24.028Z,15.70
2023-02-03T02:33:09.223Z,14.10
2023-02-03T02:35:59.869Z,17.30
2023-02-03T02:38:43.077Z,13.70
2023-02-03T02:41:22.183Z,13.70
2023-02-03T02:44:02.876Z,15.10
2023-02-03T02:46:40.285Z,20.30
2023-02-03T02:49:17.596Z,23.10
2023-02-03T02:51:49.919Z,33.70
2023-02-03T02:54:25.004Z,40.70
2023-02-03T02:57:00.856Z,21.00
2023-02-03T02:59:32.247Z,22.90
2023-02-03T03:02:02.605Z,24.40
2023-02-03T03:04:35.197Z,25.50
2023-02-03T03:07:12.628Z,23.20
2023-02-03T03:09:48.260Z,20.30
2023-02-03T03:12:22.537Z,14.90
2023-02-03T03:15:01.554Z,18.80
2023-02-03T03:17:35.929Z,19.10
2023-02-03T03:20:11.747Z,18.50
2023-02-03T03:22:49.658Z,17.80
2023-02-03T03:25:25.599Z,23.50
2023-02-03T03:28:00.366Z,15.70
2023-02-03T03:30:35.002Z,25.30
2023-02-03T03:33:07.294Z,20.90
2023-02-03T03:35:43.717Z,25.20
2023-02-03T03:38:20.148Z,19.10
2023-02-03T03:40:57.868Z,16.10
2023-02-03T03:43:33.037Z,12.30
2023-02-03T03:46:11.405Z,12.70
2023-02-03T03:48:51.178Z,11.10
2023-02-03T03:51:28.759Z,7.40
2023-02-03T03:54:03.049Z,11.10
2023-02-03T03:56:37.432Z,7.90
2023-02-03T03:59:12.455Z,9.30
2023-02-03T04:01:43.978Z,8.30
2023-02-03T04:04:16.857Z,11.70
2023-02-03T04:06:47.246Z,7.60
2023-02-03T04:09:17.565Z,19.90
2023-02-03T04:12:02.839Z,16.50
2023-02-03T04:14:34.743Z,14.10
2023-02-03T04:17:05.069Z,12.90
2023-02-03T04:19:36.175Z,10.70
2023-02-03T04:22:06.665Z,5.60
2023-02-03T04:24:37.000Z,13.00
2023-02-03T04:27:07.703Z,13.50
2023-02-03T04:29:38.030Z,12.70
2023-02-03T04:32:09.065Z,12.50
2023-02-03T04:34:39.465Z,8.40
2023-02-03T04:37:10.022Z,10.00
2023-02-03T04:39:40.865Z,8.50
2023-02-03T04:42:11.197Z,6.20
2023-02-03T04:44:41.496Z,5.20
2023-02-03T04:47:11.806Z,8.70
2023-02-03T04:49:42.140Z,8.90
2023-02-03T04:52:12.904Z,4.60
2023-02-03T04:54:47.685Z,5.50
2023-02-03T04:57:18.058Z,5.70
2023-02-03T04:59:49.694Z,8.00
2023-02-03T05:02:20.369Z,5.70
2023-02-03T05:04:50.774Z,8.40
2023-02-03T05:07:23.581Z,9.50
2023-02-03T05:09:53.872Z,8.30
2023-02-03T05:12:28.913Z,8.10
2023-02-03T05:15:00.850Z,7.50
2023-02-03T05:17:31.558Z,6.80
2023-02-03T05:20:01.853Z,7.50
2023-02-03T05:22:32.271Z,8.40
2023-02-03T05:25:02.738Z,4.90
2023-02-03T05:27:33.177Z,5.80
2023-02-03T05:30:03.555Z,7.40
2023-02-03T05:32:34.254Z,6.60
2023-02-03T05:35:04.707Z,6.90
2023-02-03T05:37:34.982Z,6.70
2023-02-03T05:40:24.059Z,9.60
2023-02-03T05:42:54.605Z,7.40
2023-02-03T05:45:25.442Z,7.20
2023-02-03T05:47:55.718Z,7.80
2023-02-03T05:50:27.199Z,7.40
2023-02-03T05:53:13.369Z,9.40
2023-02-03T05:55:43.852Z,6.10
2023-02-03T05:58:14.293Z,9.60
2023-02-03T06:00:45.419Z,7.80
2023-02-03T06:03:15.831Z,13.10
2023-02-03T06:05:46.641Z,9.00
2023-02-03T06:08:17.621Z,9.30
2023-02-03T06:10:47.948Z,8.50
2023-02-03T06:13:18.829Z,8.70
2023-02-03T06:15:49.158Z,11.40
2023-02-03T06:18:19.489Z,10.60
2023-02-03T06:20:49.785Z,9.40
2023-02-03T06:23:20.580Z,7.50
2023-02-03T06:25:52.536Z,8.10
2023-02-03T06:28:22.913Z,7.70
2023-02-03T06:30:54.141Z,7.60
2023-02-03T06:33:24.656Z,7.10
2023-02-03T06:35:56.045Z,7.20
2023-02-03T06:38:26.395Z,11.30
2023-02-03T06:40:56.729Z,8.30
2023-02-03T06:43:27.086Z,7.00
2023-02-03T06:45:57.508Z,6.00
2023-02-03T06:48:28.027Z,7.60
2023-02-03T06:50:58.423Z,10.00
2023-02-03T06:53:28.765Z,8.90
2023-02-03T06:56:02.127Z,6.20
2023-02-03T06:58:32.525Z,5.40
2023-02-03T07:01:03.015Z,4.50
2023-02-03T07:03:33.345Z,4.70
2023-02-03T07:06:03.724Z,4.50
2023-02-03T07:08:34.004Z,5.40
2023-02-03T07:11:04.525Z,7.20
2023-02-03T07:13:34.881Z,6.30
2023-02-03T07:16:05.637Z,5.50
2023-02-03T07:18:47.713Z,5.40
2023-02-03T07:21:19.432Z,9.20
2023-02-03T07:23:51.092Z,6.10
2023-02-03T07:26:23.048Z,6.10
2023-02-03T07:28:54.578Z,6.30
2023-02-03T07:31:25.019Z,2.50
2023-02-03T07:33:56.436Z,5.10
2023-02-03T07:36:28.146Z,5.70
2023-02-03T07:38:58.553Z,4.10
2023-02-03T07:41:29.137Z,3.40
2023-02-03T07:43:59.604Z,5.30
2023-02-03T07:46:30.410Z,6.20
2023-02-03T07:49:00.856Z,5.40
2023-02-03T07:51:32.649Z,7.40
2023-02-03T07:54:06.155Z,5.90
2023-02-03T07:56:37.732Z,6.20
2023-02-03T07:59:08.048Z,4.90
2023-02-03T08:01:38.653Z,5.60
2023-02-03T08:04:09.233Z,7.20
2023-02-03T08:06:39.561Z,6.90
2023-02-03T08:09:09.916Z,5.10
2023-02-03T08:11:41.357Z,3.70
2023-02-03T08:14:11.642Z,4.60
2023-02-03T08:16:41.973Z,3.90
2023-02-03T08:19:13.232Z,4.90
2023-02-03T08:21:44.424Z,6.20
2023-02-03T08:24:15.254Z,5.90
2023-02-03T08:26:45.674Z,6.00
2023-02-03T08:29:16.649Z,5.50
2023-02-03T08:31:47.534Z,5.00
2023-02-03T08:34:18.043Z,10.10
2023-02-03T08:36:48.426Z,5.80
2023-02-03T08:39:18.811Z,6.60
2023-02-03T08:41:49.098Z,6.30
2023-02-03T08:44:19.959Z,6.70
2023-02-03T08:47:02.679Z,5.60
2023-02-03T08:49:35.948Z,6.80
2023-02-03T08:52:07.876Z,9.10
2023-02-03T08:54:41.034Z,6.00
2023-02-03T08:57:13.518Z,5.90
2023-02-03T08:59:45.942Z,8.40
2023-02-03T09:02:20.442Z,5.30
2023-02-03T09:04:52.052Z,9.30
2023-02-03T09:07:22.872Z,6.30
2023-02-03T09:09:54.652Z,6.50
2023-02-03T09:12:28.846Z,9.60
2023-02-03T09:15:01.694Z,7.70
2023-02-03T09:17:34.291Z,8.10
2023-02-03T09:20:05.308Z,8.30
2023-02-03T09:22:37.055Z,6.50
2023-02-03T09:25:08.603Z,7.70
2023-02-03T09:27:41.376Z,6.40
2023-02-03T09:30:15.230Z,6.20
2023-02-03T09:32:51.559Z,5.60
2023-02-03T09:35:26.984Z,7.50
2023-02-03T09:37:57.333Z,5.10
2023-02-03T09:40:33.769Z,6.50
2023-02-03T09:43:16.476Z,7.20
2023-02-03T09:45:47.046Z,8.10
2023-02-03T09:48:22.466Z,4.70
2023-02-03T09:50:54.183Z,6.70
2023-02-03T09:53:32.039Z,7.00
2023-02-03T09:56:04.996Z,7.50
2023-02-03T09:58:37.019Z,7.20
2023-02-03T10:01:13.505Z,8.40
2023-02-03T10:03:56.158Z,7.30
2023-02-03T10:06:39.858Z,6.90
2023-02-03T10:09:33.417Z,9.90
2023-02-03T10:12:35.222Z,9.20
2023-02-03T10:15:25.186Z,9.60
2023-02-03T10:18:01.304Z,6.90
2023-02-03T10:20:47.816Z,6.90
2023-02-03T10:23:30.595Z,5.50
2023-02-03T10:26:08.553Z,6.10
2023-02-03T10:28:45.213Z,7.50
2023-02-03T10:31:23.197Z,7.20
2023-02-03T10:34:06.105Z,6.30
2023-02-03T10:36:51.879Z,5.70
2023-02-03T10:39:42.927Z,7.30
2023-02-03T10:42:14.873Z,6.80
2023-02-03T10:44:49.047Z,6.40
2023-02-03T10:47:29.593Z,8.00
2023-02-03T10:50:02.791Z,7.70
2023-02-03T10:52:36.135Z,10.10
2023-02-03T10:55:31.236Z,9.20
2023-02-03T10:58:16.300Z,7.30
2023-02-03T11:00:47.064Z,6.90
2023-02-03T11:03:26.304Z,8.70
2023-02-03T11:06:09.360Z,7.80
2023-02-03T11:08:41.665Z,8.40
2023-02-03T11:11:17.326Z,8.20
2023-02-03T11:13:48.894Z,6.10
2023-02-03T11:16:21.255Z,7.20
2023-02-03T11:18:56.600Z,7.90
2023-02-03T11:21:29.501Z,8.10
2023-02-03T11:24:06.317Z,6.70
2023-02-03T11:26:42.176Z,6.50
2023-02-03T11:29:22.824Z,6.10
2023-02-03T11:31:56.611Z,6.90
2023-02-03T11:34:30.947Z,7.40
2023-02-03T11:37:27.003Z,7.50
2023-02-03T11:40:14.860Z,9.20
2023-02-03T11:42:47.352Z,6.30
2023-02-03T11:45:26.253Z,7.20
2023-02-03T11:48:00.115Z,6.70
2023-02-03T11:50:37.977Z,5.30
2023-02-03T11:53:27.308Z,3.00
2023-02-03T11:56:18.200Z,4.10
2023-02-03T11:59:21.244Z,4.30
2023-02-03T12:02:14.400Z,5.40
2023-02-03T12:05:07.625Z,4.50
2023-02-03T12:07:52.188Z,4.10
2023-02-03T12:10:34.336Z,3.20
2023-02-03T12:13:18.037Z,3.00
2023-02-03T12:16:05.612Z,1.70
2023-02-03T12:18:52.963Z,1.80
2023-02-03T12:21:39.720Z,0.80
2023-02-03T12:24:24.225Z,3.20
2023-02-03T12:27:04.998Z,1.90
2023-02-03T12:29:41.276Z,1.30
2023-02-03T12:32:21.675Z,2.50
2023-02-03T12:34:58.014Z,2.90
2023-02-03T12:37:35.221Z,2.20
2023-02-03T12:40:15.384Z,3.80
2023-02-03T12:42:53.329Z,4.80
2023-02-03T12:45:29.199Z,2.80
2023-02-03T12:48:05.112Z,2.20
2023-02-03T12:50:41.487Z,1.40
2023-02-03T12:53:19.450Z,1.60
2023-02-03T12:55:56.723Z,2.00
2023-02-03T12:58:33.030Z,1.30
2023-02-03T13:01:10.362Z,1.60
2023-02-03T13:03:46.841Z,1.90
2023-02-03T13:06:25.334Z,2.20
2023-02-03T13:09:02.398Z,1.40
2023-02-03T13:14:16.717Z,1.40
2023-02-03T13:16:53.465Z,1.80
2023-02-03T13:19:29.343Z,1.40
2023-02-03T13:21:59.960Z,3.90
2023-02-03T13:24:31.816Z,1.10
2023-02-03T13:27:18.202Z,1.50
2023-02-03T13:30:09.197Z,1.00
2023-02-03T13:33:04.134Z,3.40
2023-02-03T13:35:52.762Z,1.40
2023-02-03T13:38:36.954Z,0.90
2023-02-03T13:41:12.248Z,2.70
2023-02-03T13:43:49.347Z,1.00
2023-02-03T13:48:58.829Z,1.50
2023-02-03T13:51:34.842Z,2.20
2023-02-03T13:54:08.953Z,2.00
2023-02-03T13:56:40.150Z,0.70
2023-02-03T13:59:33.129Z,0.80
2023-02-03T14:02:41.675Z,1.30
2023-02-03T14:05:44.500Z,1.30
2023-02-03T14:08:54.159Z,1.10
2023-02-03T14:11:46.169Z,1.50
2023-02-03T14:14:44.416Z,1.90
2023-02-03T14:20:01.773Z,1.30
2023-02-03T14:22:34.188Z,1.30
2023-02-03T14:25:09.423Z,2.90
2023-02-03T14:27:40.380Z,1.90
2023-02-03T14:30:13.711Z,1.10
2023-02-03T14:32:56.069Z,2.00
2023-02-03T14:35:33.822Z,2.00
2023-02-03T14:38:09.457Z,4.20
2023-02-03T14:40:49.369Z,5.40
2023-02-03T14:43:40.921Z,2.60
2023-02-03T14:46:35.582Z,2.20
2023-02-03T14:49:27.969Z,7.60
2023-02-03T14:52:12.988Z,5.00
2023-02-03T14:54:59.528Z,10.50
2023-02-03T14:57:41.719Z,10.90
2023-02-03T15:00:29.683Z,5.20
2023-02-03T15:03:31.272Z,6.10
2023-02-03T15:06:04.867Z,6.60
2023-02-03T15:08:42.560Z,8.60
2023-02-03T15:11:31.681Z,10.40
2023-02-03T15:14:22.669Z,6.70
2023-02-03T15:17:00.377Z,9.20
2023-02-03T15:19:36.100Z,8.80
2023-02-03T15:22:20.876Z,6.90
2023-02-03T15:24:52.606Z,3.30
2023-02-03T15:27:28.147Z,10.40
2023-02-03T15:30:00.098Z,4.80
2023-02-03T15:32:36.440Z,6.10
2023-02-03T15:35:12.480Z,12.20
2023-02-03T15:37:49.007Z,9.20
2023-02-03T15:40:23.560Z,5.80
2023-02-03T15:42:59.908Z,10.50
2023-02-03T15:45:36.037Z,8.20
2023-02-03T15:48:13.370Z,7.70
2023-02-03T15:50:47.093Z,16.60
2023-02-03T15:53:22.482Z,10.50
2023-02-03T15:55:56.149Z,13.00
2023-02-03T15:58:29.282Z,7.30
2023-02-03T16:01:03.651Z,8.10
2023-02-03T16:03:40.835Z,8.90
2023-02-03T16:06:25.541Z,8.50
2023-02-03T16:08:57.485Z,7.70
2023-02-03T16:11:31.671Z,15.00
2023-02-03T16:14:05.315Z,10.20
2023-02-03T16:16:43.787Z,8.40
2023-02-03T16:19:24.342Z,7.30
2023-02-03T16:21:57.815Z,5.50
2023-02-03T16:24:46.010Z,3.90
2023-02-03T16:27:35.271Z,6.40
2023-02-03T16:30:43.882Z,4.20
2023-02-03T16:33:35.582Z,6.40
2023-02-03T16:36:31.608Z,7.00
2023-02-03T16:39:22.037Z,6.80
2023-02-03T16:42:18.994Z,3.40
2023-02-03T16:45:07.397Z,12.10
2023-02-03T16:47:58.625Z,13.30
2023-02-03T16:50:48.161Z,7.70
2023-02-03T16:53:21.580Z,16.30
2023-02-03T16:55:54.575Z,12.40
2023-02-03T16:58:25.507Z,16.80
2023-02-03T17:00:57.082Z,10.30
2023-02-03T17:03:29.746Z,5.30
2023-02-03T17:06:03.002Z,7.30
2023-02-03T17:08:33.423Z,12.50
2023-02-03T17:11:12.236Z,11.10
2023-02-03T17:13:44.146Z,9.70
2023-02-03T17:16:17.881Z,12.70
2023-02-03T17:18:51.435Z,8.90
2023-02-03T17:21:25.466Z,12.60
2023-02-03T17:23:57.832Z,16.00
2023-02-03T17:26:28.271Z,13.70
2023-02-03T17:29:03.147Z,11.40
2023-02-03T17:31:35.096Z,5.40
2023-02-03T17:34:06.244Z,11.60
2023-02-03T17:36:37.398Z,12.20
2023-02-03T17:55:40.245Z,7.50
2023-02-03T17:58:11.077Z,13.00
2023-02-03T18:00:41.552Z,14.60
2023-02-03T18:03:12.088Z,10.70
2023-02-03T18:05:50.998Z,15.00
2023-02-03T18:08:25.235Z,8.30
2023-02-03T18:10:56.354Z,15.90
2023-02-03T18:13:28.206Z,17.00
2023-02-03T18:15:59.868Z,8.10
2023-02-03T18:18:31.009Z,12.80
2023-02-03T18:21:03.324Z,12.20
2023-02-03T18:23:34.808Z,11.40
2023-02-03T18:26:07.381Z,11.00
2023-02-03T18:28:39.112Z,9.40
2023-02-03T18:31:14.327Z,13.00
2023-02-03T18:33:46.529Z,14.20
2023-02-03T18:36:18.708Z,15.50
2023-02-03T18:38:50.080Z,18.00
2023-02-03T18:41:24.905Z,11.60
2023-02-03T18:44:09.252Z,10.60
2023-02-03T18:46:43.567Z,13.20
2023-02-03T18:49:19.122Z,10.10
2023-02-03T18:51:49.759Z,14.10
2023-02-03T18:54:20.135Z,17.50
2023-02-03T18:56:53.352Z,10.40
2023-02-03T18:59:26.301Z,10.80
2023-02-03T19:01:57.641Z,9.50
2023-02-03T19:04:27.981Z,14.80
2023-02-03T19:06:59.152Z,10.90
2023-02-03T19:09:29.526Z,13.20
2023-02-03T19:12:00.214Z,11.00
2023-02-03T19:14:31.038Z,10.40
2023-02-03T19:17:01.369Z,10.90
2023-02-03T19:19:31.925Z,12.00
2023-02-03T19:22:03.046Z,11.80
2023-02-03T19:24:33.638Z,8.90
2023-02-03T19:27:04.454Z,12.70
2023-02-03T19:29:35.212Z,9.50
2023-02-03T19:32:07.072Z,7.30
2023-02-03T19:34:45.512Z,13.30
2023-02-03T19:37:15.842Z,11.80
2023-02-03T19:39:50.524Z,7.40
2023-02-03T19:42:20.889Z,9.10
2023-02-03T19:44:52.574Z,11.80
2023-02-03T19:47:28.661Z,15.60
2023-02-03T19:49:59.494Z,11.90
2023-02-03T19:52:30.040Z,22.00
2023-02-03T19:55:00.362Z,17.20
2023-02-03T19:57:30.650Z,11.90
2023-02-03T20:00:01.240Z,12.80
2023-02-03T20:02:31.985Z,16.20
2023-02-03T20:05:02.664Z,15.50
2023-02-03T20:07:36.163Z,9.30
2023-02-03T20:10:07.402Z,7.30
2023-02-03T20:12:37.677Z,6.50
2023-02-03T20:15:11.491Z,8.40
2023-02-03T20:17:43.288Z,11.80
2023-02-03T20:20:14.463Z,12.50
2023-02-03T20:22:46.090Z,9.60
2023-02-03T20:25:17.458Z,8.10
2023-02-03T20:27:49.673Z,3.90
2023-02-03T20:30:20.452Z,10.40
2023-02-03T20:32:53.176Z,5.90
2023-02-03T20:35:25.314Z,9.50
2023-02-03T20:37:56.280Z,7.70
2023-02-03T20:40:29.470Z,5.30
2023-02-03T20:43:05.917Z,14.90
2023-02-03T20:45:38.663Z,17.40
2023-02-03T20:48:16.140Z,12.60
2023-02-03T20:50:48.450Z,9.60
2023-02-03T20:53:21.003Z,5.40
2023-02-03T20:55:58.609Z,8.20
2023-02-03T20:58:31.771Z,7.70
2023-02-03T21:01:04.141Z,6.20
2023-02-03T21:03:52.234Z,8.30
2023-02-03T21:06:23.944Z,9.00
2023-02-03T21:08:54.864Z,8.10
2023-02-03T21:11:27.709Z,10.90
2023-02-03T21:14:06.075Z,12.30
2023-02-03T21:16:43.905Z,5.20
2023-02-03T21:19:36.267Z,8.00
2023-02-03T21:22:23.694Z,4.70
2023-02-03T21:25:06.990Z,10.60
2023-02-03T21:27:50.689Z,6.30
2023-02-03T21:30:33.223Z,7.10
2023-02-03T21:33:26.510Z,9.40
2023-02-03T21:35:57.120Z,10.50
2023-02-03T21:38:32.712Z,11.70
2023-02-03T21:41:03.451Z,8.60
2023-02-03T21:43:38.224Z,6.70
2023-02-03T21:46:15.843Z,5.60
2023-02-03T21:48:56.080Z,8.10
2023-02-03T21:51:31.985Z,6.90
2023-02-03T21:54:03.756Z,7.70
2023-02-03T21:56:41.467Z,7.40
2023-02-03T21:59:19.059Z,11.30
2023-02-03T22:01:53.277Z,7.80
2023-02-03T22:04:26.504Z,5.30
2023-02-03T22:06:58.376Z,8.70
2023-02-03T22:09:46.268Z,8.20
2023-02-03T22:16:50.807Z,8.50
2023-02-03T22:20:07.341Z,7.40
2023-02-03T22:22:42.205Z,8.60
2023-02-03T22:25:33.888Z,4.90
2023-02-03T22:28:09.133Z,8.40
2023-02-03T22:30:44.094Z,10.10
2023-02-03T22:33:14.777Z,3.70
2023-02-03T22:35:45.208Z,12.90
2023-02-03T22:38:16.504Z,4.30
2023-02-03T22:40:47.201Z,8.70
2023-02-03T22:43:17.580Z,6.50
2023-02-03T22:46:03.065Z,6.30
2023-02-03T22:48:36.733Z,10.10
2023-02-03T22:51:07.395Z,3.70
2023-02-03T22:53:39.597Z,6.40
2023-02-03T22:56:10.173Z,6.30
2023-02-03T22:59:32.745Z,3.00
2023-02-03T23:02:28.297Z,5.00
2023-02-03T23:05:13.000Z,3.20
2023-02-03T23:07:49.481Z,5.00
2023-02-03T23:10:32.322Z,6.20
2023-02-03T23:13:06.394Z,3.90
2023-02-03T23:15:39.114Z,3.40
2023-02-03T23:18:10.436Z,1.60
2023-02-03T23:20:48.251Z,3.50
2023-02-03T23:23:20.029Z,1.40
2023-02-03T23:25:54.820Z,4.40
2023-02-03T23:28:26.291Z,4.00
2023-02-03T23:30:58.533Z,1.90
2023-02-03T23:33:29.058Z,2.40
2023-02-03T23:35:59.403Z,1.60
2023-02-03T23:38:30.383Z,1.30
2023-02-03T23:41:00.911Z,2.20
2023-02-03T23:43:32.446Z,2.70
2023-02-03T23:46:05.188Z,5.00
2023-02-03T23:48:36.090Z,0.80
2023-02-03T23:51:07.020Z,4.30
2023-02-03T23:53:37.327Z,1.40
2023-02-03T23:56:08.057Z,0.90
2023-02-03T23:58:38.386Z,0.60
